Time;durP1;ratioP1;P1;durP2;ratioP2;P2;SDS_P1;SDS_P2;PMS_P1;PMS_P2;Temp;Humidity;BMP_temperature;BMP_pressure;BME280_temperature;BME280_humidity;BME280_pressure;Samples;Min_cycle;Max_cycle;Signal;HPM_P1;HPM_P2
2022/11/05 00:09:30;;;;;;;22.63;15.63;;;;;;;;;;5018632;23;20248;-78
2022/11/05 00:17:34;;;;;;;20.77;13.47;;;;;;;;;;5030050;28;20195;-78
2022/11/05 00:20:00;;;;;;;17.23;12.77;;;;;;;;;;4998737;28;20204;-78
2022/11/05 00:25:13;;;;;;;18.77;10.40;;;;;;;;;;5014470;28;20204;-78
2022/11/05 00:27:40;;;;;;;15.10;10.10;;;;;;;;;;5000215;28;20185;-78
2022/11/05 00:30:06;;;;;;;13.17;8.80;;;;;;;;;;5023640;28;20195;-78
2022/11/05 00:32:33;;;;;;;14.27;9.63;;;;;;;;;;5023493;28;20264;-89
2022/11/05 00:34:59;;;;;;;12.00;8.10;;;;;;;;;;5003121;28;20186;-89
2022/11/05 00:37:28;;;;;;;11.97;8.27;;;;;;;;;;5016304;28;20181;-89
2022/11/05 00:39:54;;;;;;;11.00;7.43;;;;;;;;;;5020815;28;20224;-82
2022/11/05 00:45:05;;;;;;;12.50;7.80;;;;;;;;;;5011058;28;20301;-80
2022/11/05 00:50:17;;;;;;;11.13;7.60;;;;;;;;;;5013309;28;20204;-80
2022/11/05 00:52:56;;;;;;;13.43;7.67;;;;;;;;;;5023709;28;20293;-80
2022/11/05 00:55:22;;;;;;;7.87;6.77;;;;;;;;;;5028100;28;20189;-81
2022/11/05 00:57:48;;;;;;;11.77;7.47;;;;;;;;;;5031871;28;20185;-81
2022/11/05 01:00:15;;;;;;;10.83;7.40;;;;;;;;;;5009406;28;20196;-81
2022/11/05 01:02:41;;;;;;;12.82;9.30;;;;;;;;;;5008114;28;20434;-81
2022/11/05 01:05:07;;;;;;;12.73;8.30;;;;;;;;;;5017275;28;20488;-80
2022/11/05 01:07:33;;;;;;;13.23;7.53;;;;;;;;;;4997329;28;20193;-80
2022/11/05 01:09:59;;;;;;;10.63;7.40;;;;;;;;;;4998282;28;20229;-81
2022/11/05 01:12:25;;;;;;;12.30;7.33;;;;;;;;;;4999182;28;20185;-80
2022/11/05 01:14:51;;;;;;;14.13;7.90;;;;;;;;;;5027602;28;20193;-79
2022/11/05 01:17:17;;;;;;;13.00;7.43;;;;;;;;;;5046497;28;20284;-79
2022/11/05 01:19:43;;;;;;;13.53;7.90;;;;;;;;;;5005032;28;20208;-79
2022/11/05 01:22:09;;;;;;;13.40;10.48;;;;;;;;;;4995819;28;20467;-79
2022/11/05 01:24:35;;;;;;;16.93;12.20;;;;;;;;;;5018636;28;20437;-79
2022/11/05 01:27:01;;;;;;;14.50;11.27;;;;;;;;;;5029673;28;20490;-79
2022/11/05 01:29:27;;;;;;;17.00;11.68;;;;;;;;;;5013530;28;20441;-79
2022/11/05 01:31:53;;;;;;;13.07;8.93;;;;;;;;;;5022802;28;20259;-89
2022/11/05 01:34:19;;;;;;;15.30;11.18;;;;;;;;;;4999057;28;20427;-89
2022/11/05 01:36:45;;;;;;;30.00;20.40;;;;;;;;;;5015950;28;20462;-90
2022/11/05 01:39:11;;;;;;;21.08;13.55;;;;;;;;;;5012117;28;20443;-89
2022/11/05 01:41:37;;;;;;;14.93;11.13;;;;;;;;;;5019171;28;20437;-88
2022/11/05 01:44:03;;;;;;;14.50;9.97;;;;;;;;;;5008184;28;20253;-88
2022/11/05 01:46:36;;;;;;;15.00;9.90;;;;;;;;;;5020622;28;20435;-82
2022/11/05 01:49:13;;;;;;;17.90;11.75;;;;;;;;;;5012142;28;20441;-76
2022/11/05 01:51:39;;;;;;;17.20;12.82;;;;;;;;;;5013614;28;20435;-75
2022/11/05 01:54:08;;;;;;;23.92;16.05;;;;;;;;;;4997178;28;20449;-79
2022/11/05 01:56:40;;;;;;;20.48;14.68;;;;;;;;;;5013454;28;20454;-79
2022/11/05 01:59:21;;;;;;;21.60;12.48;;;;;;;;;;5030136;28;20501;-79
2022/11/05 02:01:47;;;;;;;16.80;12.80;;;;;;;;;;5001487;28;20427;-79
2022/11/05 02:04:15;;;;;;;18.27;11.13;;;;;;;;;;5022633;28;20188;-80
2022/11/05 02:06:45;;;;;;;21.90;12.70;;;;;;;;;;5016790;28;20446;-80
2022/11/05 02:09:14;;;;;;;18.25;12.68;;;;;;;;;;5021105;28;20461;-80
2022/11/05 02:11:40;;;;;;;19.47;13.80;;;;;;;;;;5012894;28;20483;-80
2022/11/05 02:14:06;;;;;;;16.15;11.32;;;;;;;;;;5008818;28;20493;-80
2022/11/05 02:16:47;;;;;;;24.70;12.57;;;;;;;;;;5009364;28;20421;-80
2022/11/05 02:19:30;;;;;;;18.00;12.53;;;;;;;;;;5027521;28;20491;-80
2022/11/05 02:22:13;;;;;;;15.05;11.70;;;;;;;;;;5020243;28;20423;-89
2022/11/05 02:24:58;;;;;;;16.15;12.00;;;;;;;;;;5022137;28;20440;-89
2022/11/05 02:27:48;;;;;;;16.67;12.30;;;;;;;;;;5016414;28;20436;-89
2022/11/05 02:30:34;;;;;;;15.07;10.70;;;;;;;;;;5007782;28;20197;-89
2022/11/05 02:33:00;;;;;;;15.57;11.70;;;;;;;;;;5012299;28;20458;-88
2022/11/05 02:35:35;;;;;;;19.20;12.48;;;;;;;;;;5019964;28;20423;-88
2022/11/05 02:38:20;;;;;;;14.50;9.33;;;;;;;;;;5012612;28;20234;-89
2022/11/05 02:40:54;;;;;;;16.52;10.95;;;;;;;;;;5012532;28;20439;-88
2022/11/05 02:43:46;;;;;;;14.00;11.25;;;;;;;;;;5016424;28;20437;-88
2022/11/05 02:46:15;;;;;;;14.40;11.73;;;;;;;;;;4996687;28;20411;-89
2022/11/05 02:48:44;;;;;;;13.70;9.73;;;;;;;;;;5021679;28;20235;-89
2022/11/05 02:51:21;;;;;;;15.57;10.85;;;;;;;;;;5021843;28;20447;-89
2022/11/05 02:53:55;;;;;;;13.40;8.67;;;;;;;;;;5013596;28;20181;-89
2022/11/05 02:56:23;;;;;;;13.43;10.80;;;;;;;;;;5003467;28;20398;-89
2022/11/05 02:58:49;;;;;;;13.03;8.57;;;;;;;;;;5023568;28;20188;-88
2022/11/05 03:01:15;;;;;;;14.90;11.07;;;;;;;;;;5004149;28;20443;-89
2022/11/05 03:03:43;;;;;;;13.93;10.55;;;;;;;;;;5019765;28;20432;-89
2022/11/05 03:06:27;;;;;;;14.53;11.17;;;;;;;;;;5024106;28;20411;-80
2022/11/05 03:08:57;;;;;;;16.80;12.02;;;;;;;;;;5017171;28;20470;-80
2022/11/05 03:11:24;;;;;;;15.07;11.13;;;;;;;;;;5007233;28;20462;-76
2022/11/05 03:13:59;;;;;;;13.07;10.30;;;;;;;;;;5025894;28;20432;-76
2022/11/05 03:16:34;;;;;;;12.95;10.32;;;;;;;;;;5021687;28;20459;-76
2022/11/05 03:19:07;;;;;;;12.98;10.93;;;;;;;;;;5033441;28;20429;-76
2022/11/05 03:21:39;;;;;;;11.83;8.83;;;;;;;;;;5026189;28;20196;-76
2022/11/05 03:24:10;;;;;;;14.55;9.15;;;;;;;;;;5028649;28;20395;-78
2022/11/05 03:26:56;;;;;;;10.83;8.60;;;;;;;;;;5019811;28;20200;-80
2022/11/05 03:29:25;;;;;;;15.52;11.65;;;;;;;;;;5017608;28;20522;-89
2022/11/05 03:31:53;;;;;;;18.42;12.98;;;;;;;;;;5019361;28;20455;-90
2022/11/05 03:34:21;;;;;;;15.27;10.73;;;;;;;;;;5022460;28;20446;-89
2022/11/05 03:36:51;;;;;;;17.15;10.82;;;;;;;;;;5020537;28;20439;-89
2022/11/05 03:39:18;;;;;;;15.73;12.30;;;;;;;;;;5023203;28;20532;-89
2022/11/05 03:41:46;;;;;;;15.27;10.00;;;;;;;;;;5026249;28;20189;-90
2022/11/05 03:44:15;;;;;;;16.10;8.90;;;;;;;;;;5035926;28;20185;-90
2022/11/05 03:46:44;;;;;;;13.55;11.30;;;;;;;;;;5021637;28;20425;-90
2022/11/05 03:49:11;;;;;;;15.57;9.10;;;;;;;;;;5027820;28;20239;-77
2022/11/05 03:51:43;;;;;;;14.43;8.07;;;;;;;;;;5025187;28;20178;-77
2022/11/05 03:54:10;;;;;;;12.07;8.20;;;;;;;;;;5025490;28;20180;-91
2022/11/05 03:56:44;;;;;;;12.80;8.20;;;;;;;;;;5021352;28;20260;-90
2022/11/05 03:59:10;;;;;;;13.33;7.63;;;;;;;;;;5013941;28;20182;-90
2022/11/05 04:01:37;;;;;;;13.13;7.87;;;;;;;;;;4989873;28;20213;-82
2022/11/05 04:04:04;;;;;;;16.00;11.32;;;;;;;;;;5000106;28;20419;-91
2022/11/05 04:14:43;;;;;;;13.30;7.83;;;;;;;;;;5017918;28;20239;-91
2022/11/05 04:17:10;;;;;;;15.10;11.80;;;;;;;;;;5018671;28;20492;-82
2022/11/05 04:25:07;;;;;;;15.60;9.53;;;;;;;;;;5017588;28;20208;-90
2022/11/05 04:27:33;;;;;;;14.80;8.60;;;;;;;;;;5015589;28;20182;-90
2022/11/05 04:30:18;;;;;;;16.47;9.20;;;;;;;;;;4999901;28;20253;-89
2022/11/05 04:32:56;;;;;;;11.20;8.37;;;;;;;;;;5026310;28;20183;-90
2022/11/05 04:35:22;;;;;;;15.13;9.03;;;;;;;;;;5037605;28;20180;-80
2022/11/05 04:37:48;;;;;;;17.10;9.33;;;;;;;;;;5028903;28;20177;-80
2022/11/05 04:40:14;;;;;;;15.50;8.97;;;;;;;;;;5015146;28;20203;-80
2022/11/05 04:42:40;;;;;;;13.83;9.07;;;;;;;;;;4999764;28;20194;-80
2022/11/05 04:45:06;;;;;;;11.30;9.07;;;;;;;;;;4999326;28;20208;-80
2022/11/05 04:47:32;;;;;;;13.53;9.30;;;;;;;;;;5015726;28;20193;-80
2022/11/05 04:49:58;;;;;;;11.67;9.60;;;;;;;;;;5015643;28;20185;-91
2022/11/05 04:52:24;;;;;;;15.67;9.83;;;;;;;;;;5001038;28;20273;-91
2022/11/05 04:54:50;;;;;;;14.77;10.48;;;;;;;;;;5003650;28;20431;-91
2022/11/05 04:57:16;;;;;;;16.58;12.57;;;;;;;;;;5018400;28;20431;-90
2022/11/05 04:59:42;;;;;;;15.37;10.37;;;;;;;;;;5015595;28;20218;-90
2022/11/05 05:02:08;;;;;;;16.67;10.10;;;;;;;;;;4999668;28;20186;-90
2022/11/05 05:04:34;;;;;;;15.03;10.07;;;;;;;;;;5017598;28;20185;-91
2022/11/05 05:07:00;;;;;;;15.80;9.83;;;;;;;;;;5000704;28;20185;-81
2022/11/05 05:09:26;;;;;;;14.93;10.17;;;;;;;;;;5031452;28;20293;-90
2022/11/05 05:11:52;;;;;;;17.10;10.43;;;;;;;;;;5017130;28;20227;-90
2022/11/05 05:14:18;;;;;;;16.90;10.10;;;;;;;;;;5001495;28;20185;-81
2022/11/05 05:16:44;;;;;;;21.02;14.68;;;;;;;;;;5019826;28;20415;-77
2022/11/05 05:19:10;;;;;;;18.10;10.77;;;;;;;;;;5014563;28;20189;-77
2022/11/05 05:21:42;;;;;;;16.37;9.93;;;;;;;;;;5020222;28;20188;-77
2022/11/05 05:24:09;;;;;;;19.75;14.55;;;;;;;;;;5010998;28;20433;-82
2022/11/05 05:26:36;;;;;;;18.97;11.60;;;;;;;;;;5033054;28;20180;-82
2022/11/05 05:29:02;;;;;;;19.90;11.57;;;;;;;;;;5003543;28;20220;-82
2022/11/05 05:31:28;;;;;;;16.17;10.90;;;;;;;;;;5022627;28;20182;-90
2022/11/05 05:33:55;;;;;;;23.60;16.25;;;;;;;;;;5013100;28;20426;-90
2022/11/05 05:36:21;;;;;;;20.30;11.73;;;;;;;;;;5018454;28;20174;-91
2022/11/05 05:38:47;;;;;;;21.60;11.57;;;;;;;;;;5001404;28;20193;-81
2022/11/05 05:41:13;;;;;;;18.35;11.10;;;;;;;;;;4997324;28;20379;-80
2022/11/05 05:43:39;;;;;;;23.35;15.38;;;;;;;;;;5014335;28;20427;-80
2022/11/05 05:46:06;;;;;;;21.73;16.83;;;;;;;;;;4997519;28;20426;-80
2022/11/05 05:48:33;;;;;;;21.40;16.90;;;;;;;;;;5004990;28;20446;-80
2022/11/05 05:51:03;;;;;;;20.77;12.20;;;;;;;;;;4995092;28;20261;-81
2022/11/05 05:53:29;;;;;;;21.27;11.90;;;;;;;;;;4996914;28;20198;-79
2022/11/05 05:55:55;;;;;;;23.77;17.08;;;;;;;;;;4996415;28;20413;-79
2022/11/05 05:58:22;;;;;;;18.80;12.70;;;;;;;;;;5005890;28;20177;-79
2022/11/05 06:00:48;;;;;;;16.03;12.20;;;;;;;;;;5030698;28;20181;-79
2022/11/05 06:03:14;;;;;;;18.87;11.83;;;;;;;;;;5015056;28;20192;-79
2022/11/05 06:05:40;;;;;;;14.93;11.10;;;;;;;;;;4997894;28;20190;-79
2022/11/05 06:08:06;;;;;;;21.87;16.30;;;;;;;;;;5030052;28;20434;-79
2022/11/05 06:10:32;;;;;;;19.13;13.13;;;;;;;;;;5014840;22;20238;-76
2022/11/05 06:12:59;;;;;;;17.97;12.50;;;;;;;;;;5007546;28;20313;-76
2022/11/05 06:15:25;;;;;;;17.92;12.50;;;;;;;;;;5018909;28;20457;-77
2022/11/05 06:17:51;;;;;;;27.67;17.23;;;;;;;;;;5005113;28;20518;-76
2022/11/05 06:20:17;;;;;;;23.63;16.75;;;;;;;;;;5007838;28;20485;-90
2022/11/05 06:22:43;;;;;;;19.50;12.60;;;;;;;;;;5024694;28;20319;-89
2022/11/05 06:25:10;;;;;;;20.07;13.07;;;;;;;;;;5014686;28;20234;-90
2022/11/05 06:27:36;;;;;;;18.07;12.33;;;;;;;;;;5014667;28;20188;-89
2022/11/05 06:30:05;;;;;;;18.87;11.97;;;;;;;;;;5024459;28;20254;-90
2022/11/05 06:32:31;;;;;;;21.75;17.27;;;;;;;;;;5004343;28;20414;-90
2022/11/05 06:34:57;;;;;;;22.43;13.30;;;;;;;;;;4999322;28;20193;-90
2022/11/05 06:37:23;;;;;;;20.20;12.53;;;;;;;;;;5017117;28;20189;-90
2022/11/05 06:39:49;;;;;;;20.77;12.60;;;;;;;;;;5017628;28;20185;-90
2022/11/05 06:42:15;;;;;;;16.10;12.70;;;;;;;;;;4998371;28;20173;-77
2022/11/05 06:44:41;;;;;;;21.43;13.10;;;;;;;;;;4988049;28;20264;-77
2022/11/05 06:47:07;;;;;;;13.60;11.57;;;;;;;;;;4989395;28;20181;-76
2022/11/05 06:49:33;;;;;;;18.83;11.90;;;;;;;;;;5010828;28;20276;-76
2022/11/05 06:51:59;;;;;;;14.13;11.33;;;;;;;;;;5013751;28;20185;-80
2022/11/05 06:54:25;;;;;;;18.97;12.70;;;;;;;;;;5029920;28;20177;-79
2022/11/05 06:56:51;;;;;;;22.33;12.80;;;;;;;;;;4997208;28;20212;-79
2022/11/05 06:59:18;;;;;;;16.37;12.77;;;;;;;;;;4996834;28;20193;-79
2022/11/05 07:01:44;;;;;;;17.23;13.17;;;;;;;;;;5028324;28;20232;-90
2022/11/05 07:04:11;;;;;;;19.03;14.03;;;;;;;;;;5011104;28;20185;-80
2022/11/05 07:06:37;;;;;;;17.93;13.30;;;;;;;;;;5005614;28;20182;-80
2022/11/05 07:09:03;;;;;;;21.23;13.67;;;;;;;;;;4996428;28;20236;-79
2022/11/05 07:11:29;;;;;;;20.52;14.63;;;;;;;;;;5013685;28;20429;-90
2022/11/05 07:13:55;;;;;;;19.00;13.63;;;;;;;;;;5013782;28;20178;-90
2022/11/05 07:16:21;;;;;;;24.07;18.80;;;;;;;;;;4998189;28;20412;-91
2022/11/05 07:18:47;;;;;;;26.08;21.30;;;;;;;;;;4996972;28;20422;-90
2022/11/05 07:21:14;;;;;;;26.53;16.87;;;;;;;;;;5013503;28;20182;-81
2022/11/05 07:23:40;;;;;;;28.13;21.95;;;;;;;;;;5028869;28;20427;-88
2022/11/05 07:26:06;;;;;;;26.03;17.10;;;;;;;;;;5018659;28;20180;-89
2022/11/05 07:28:32;;;;;;;27.92;22.65;;;;;;;;;;4997083;28;20446;-90
2022/11/05 07:30:58;;;;;;;24.52;20.35;;;;;;;;;;5006259;28;20532;-89
2022/11/05 07:33:24;;;;;;;24.03;16.47;;;;;;;;;;5010317;28;20188;-89
2022/11/05 07:35:50;;;;;;;20.63;15.83;;;;;;;;;;5016495;28;20169;-80
2022/11/05 07:38:17;;;;;;;22.60;15.47;;;;;;;;;;5016123;28;20185;-79
2022/11/05 07:40:43;;;;;;;20.53;15.50;;;;;;;;;;4993092;28;20194;-77
2022/11/05 07:43:09;;;;;;;19.23;15.63;;;;;;;;;;5025868;28;20181;-77
2022/11/05 07:45:35;;;;;;;25.33;15.90;;;;;;;;;;4999514;28;20220;-76
2022/11/05 07:48:02;;;;;;;22.80;16.17;;;;;;;;;;4993300;28;20202;-76
2022/11/05 07:50:30;;;;;;;24.00;16.83;;;;;;;;;;5012988;28;20180;-76
2022/11/05 07:53:00;;;;;;;21.47;16.60;;;;;;;;;;5029485;28;20231;-76
2022/11/05 07:55:26;;;;;;;24.70;16.83;;;;;;;;;;4998790;28;20217;-90
2022/11/05 07:57:52;;;;;;;26.80;17.53;;;;;;;;;;4994659;28;20189;-89
2022/11/05 08:00:19;;;;;;;22.57;17.27;;;;;;;;;;5002572;28;20199;-90
2022/11/05 08:03:06;;;;;;;19.77;16.57;;;;;;;;;;5020155;28;20177;-90
2022/11/05 08:05:33;;;;;;;22.30;15.10;;;;;;;;;;5017569;28;20188;-89
2022/11/05 08:07:59;;;;;;;16.47;11.90;;;;;;;;;;5018057;28;20204;-90
2022/11/05 08:10:29;;;;;;;13.57;10.77;;;;;;;;;;5016986;28;20228;-81
2022/11/05 08:12:55;;;;;;;14.87;10.33;;;;;;;;;;5000169;28;20189;-81
2022/11/05 08:15:22;;;;;;;12.47;10.13;;;;;;;;;;5015927;28;20201;-81
2022/11/05 08:17:48;;;;;;;12.50;10.13;;;;;;;;;;4999705;28;20243;-81
2022/11/05 08:20:14;;;;;;;12.43;8.83;;;;;;;;;;5017084;28;20184;-81
2022/11/05 08:22:43;;;;;;;12.10;9.17;;;;;;;;;;5016851;28;20177;-81
2022/11/05 08:25:10;;;;;;;10.83;8.20;;;;;;;;;;4999695;28;20185;-82
2022/11/05 08:27:39;;;;;;;12.00;8.20;;;;;;;;;;5000072;28;20193;-91
2022/11/05 08:30:06;;;;;;;10.43;9.03;;;;;;;;;;5001176;28;20205;-91
2022/11/05 08:32:33;;;;;;;12.90;8.53;;;;;;;;;;5022908;28;20181;-90
2022/11/05 08:34:59;;;;;;;13.23;8.83;;;;;;;;;;5018290;28;20177;-90
2022/11/05 08:37:25;;;;;;;13.73;8.70;;;;;;;;;;5017024;28;20177;-82
2022/11/05 08:39:51;;;;;;;10.00;8.13;;;;;;;;;;5016888;28;20264;-90
2022/11/05 08:42:17;;;;;;;12.13;8.43;;;;;;;;;;5002121;28;20266;-90
2022/11/05 08:44:43;;;;;;;12.50;7.93;;;;;;;;;;5019621;28;20212;-87
2022/11/05 08:47:09;;;;;;;8.80;7.20;;;;;;;;;;5015525;28;20178;-81
2022/11/05 08:49:35;;;;;;;10.63;6.90;;;;;;;;;;5015510;28;20266;-80
2022/11/05 08:52:01;;;;;;;7.83;6.37;;;;;;;;;;5016797;28;20182;-81
2022/11/05 08:54:27;;;;;;;10.57;6.37;;;;;;;;;;5015467;28;20177;-81
2022/11/05 08:56:53;;;;;;;8.00;6.13;;;;;;;;;;5015458;28;20268;-81
2022/11/05 08:59:19;;;;;;;8.57;5.40;;;;;;;;;;5015758;28;20220;-81
2022/11/05 09:01:45;;;;;;;10.03;6.07;;;;;;;;;;4999163;28;20232;-90
2022/11/05 09:04:11;;;;;;;8.77;5.63;;;;;;;;;;5017186;28;20197;-91
2022/11/05 09:06:37;;;;;;;9.00;5.17;;;;;;;;;;4992966;28;20190;-91
2022/11/05 09:09:03;;;;;;;9.23;5.47;;;;;;;;;;4999162;28;20230;-91
2022/11/05 09:11:29;;;;;;;9.57;5.57;;;;;;;;;;5014042;28;20213;-91
2022/11/05 09:13:55;;;;;;;9.40;5.30;;;;;;;;;;5028797;28;20188;-91
2022/11/05 09:16:23;;;;;;;8.47;5.63;;;;;;;;;;5018529;28;20189;-90
2022/11/05 09:18:50;;;;;;;10.80;5.90;;;;;;;;;;5006947;28;20185;-79
2022/11/05 09:21:17;;;;;;;8.13;5.75;;;;;;;;;;5014369;28;20421;-78
2022/11/05 09:23:43;;;;;;;9.57;5.85;;;;;;;;;;5014061;28;20411;-78
2022/11/05 09:26:10;;;;;;;6.87;5.20;;;;;;;;;;4997425;28;20200;-78
2022/11/05 09:28:37;;;;;;;7.63;5.10;;;;;;;;;;5014591;28;20209;-78
2022/11/05 09:31:07;;;;;;;8.83;5.50;;;;;;;;;;5014561;28;20194;-79
2022/11/05 09:33:34;;;;;;;8.70;5.60;;;;;;;;;;4990252;28;20185;-82
2022/11/05 09:36:00;;;;;;;6.82;5.43;;;;;;;;;;5013233;28;20430;-81
2022/11/05 09:38:26;;;;;;;7.27;5.00;;;;;;;;;;4998078;28;20185;-81
2022/11/05 09:40:55;;;;;;;6.27;5.10;;;;;;;;;;5014752;28;20188;-81
2022/11/05 09:43:23;;;;;;;7.77;4.60;;;;;;;;;;5014317;28;20177;-81
2022/11/05 09:45:50;;;;;;;9.77;4.90;;;;;;;;;;5014421;28;20205;-81
2022/11/05 09:48:18;;;;;;;7.70;5.13;;;;;;;;;;5015354;28;20204;-81
2022/11/05 09:50:45;;;;;;;10.27;4.80;;;;;;;;;;5015366;28;20183;-83
2022/11/05 09:53:16;;;;;;;5.37;4.67;;;;;;;;;;5011682;28;20189;-83
2022/11/05 09:55:43;;;;;;;7.50;4.80;;;;;;;;;;5014820;28;20177;-83
2022/11/05 09:58:33;;;;;;;8.60;4.77;;;;;;;;;;5012990;28;20181;-83
2022/11/05 10:01:00;;;;;;;7.33;4.70;;;;;;;;;;5012657;28;20209;-83
2022/11/05 10:03:29;;;;;;;8.40;4.63;;;;;;;;;;5013982;28;20188;-83
2022/11/05 10:06:05;;;;;;;5.50;4.70;;;;;;;;;;5013789;28;20227;-83
2022/11/05 10:08:33;;;;;;;7.67;4.83;;;;;;;;;;5013999;28;20212;-82
2022/11/05 10:11:04;;;;;;;6.57;4.80;;;;;;;;;;5014051;28;20213;-82
2022/11/05 10:13:41;;;;;;;7.77;4.80;;;;;;;;;;5015394;28;20189;-82
2022/11/05 10:16:28;;;;;;;4.87;4.23;;;;;;;;;;5014331;28;20177;-82
2022/11/05 10:18:57;;;;;;;7.40;4.83;;;;;;;;;;5014947;28;20177;-82
2022/11/05 10:21:24;;;;;;;4.87;4.27;;;;;;;;;;5013597;28;20181;-81
2022/11/05 10:23:50;;;;;;;7.00;4.20;;;;;;;;;;5013961;28;20189;-81
2022/11/05 10:26:21;;;;;;;8.73;5.23;;;;;;;;;;5013518;28;20193;-81
2022/11/05 10:28:48;;;;;;;5.60;4.50;;;;;;;;;;5014130;28;20205;-82
2022/11/05 10:31:16;;;;;;;6.87;4.70;;;;;;;;;;5013881;28;20181;-83
2022/11/05 10:34:01;;;;;;;9.20;4.83;;;;;;;;;;5012509;28;20177;-83
2022/11/05 10:36:32;;;;;;;8.13;4.73;;;;;;;;;;5013361;28;20267;-78
2022/11/05 10:39:09;;;;;;;6.57;5.00;;;;;;;;;;5014760;28;20174;-78
2022/11/05 10:41:55;;;;;;;9.00;5.17;;;;;;;;;;5013486;28;20204;-78
2022/11/05 10:44:26;;;;;;;6.70;4.37;;;;;;;;;;5013440;28;20188;-78
2022/11/05 10:47:05;;;;;;;7.67;4.93;;;;;;;;;;5013700;28;20197;-78
2022/11/05 10:49:37;;;;;;;7.50;5.07;;;;;;;;;;5013765;28;20221;-78
2022/11/05 10:52:20;;;;;;;8.50;5.20;;;;;;;;;;5012903;28;20181;-78
2022/11/05 10:54:46;;;;;;;8.77;5.40;;;;;;;;;;5013350;28;20179;-78
2022/11/05 10:57:28;;;;;;;9.57;5.30;;;;;;;;;;4996983;28;20189;-91
2022/11/05 11:00:09;;;;;;;7.03;5.17;;;;;;;;;;5014905;28;20185;-91
2022/11/05 11:02:36;;;;;;;7.47;5.70;;;;;;;;;;5013593;28;20185;-91
2022/11/05 11:05:02;;;;;;;7.47;5.53;;;;;;;;;;5010619;28;20188;-90
2022/11/05 11:07:28;;;;;;;8.17;5.30;;;;;;;;;;4997352;28;20189;-81
2022/11/05 11:09:54;;;;;;;7.80;5.47;;;;;;;;;;4996838;28;20244;-81
2022/11/05 11:12:26;;;;;;;7.43;5.03;;;;;;;;;;5012667;28;20181;-81
2022/11/05 11:15:02;;;;;;;10.20;5.60;;;;;;;;;;4996951;28;20197;-82
2022/11/05 11:17:30;;;;;;;6.83;5.50;;;;;;;;;;5001914;28;20177;-82
2022/11/05 11:20:11;;;;;;;8.33;5.47;;;;;;;;;;5013668;28;20181;-82
2022/11/05 11:22:37;;;;;;;10.73;6.00;;;;;;;;;;5012869;28;20251;-82
2022/11/05 11:25:18;;;;;;;7.10;5.57;;;;;;;;;;5012855;28;20193;-82
2022/11/05 11:27:44;;;;;;;9.63;5.80;;;;;;;;;;5013556;28;20244;-82
2022/11/05 11:30:16;;;;;;;8.40;5.93;;;;;;;;;;5000050;28;20308;-81
2022/11/05 11:32:42;;;;;;;6.43;5.83;;;;;;;;;;5016908;28;20189;-81
2022/11/05 11:35:18;;;;;;;10.33;6.00;;;;;;;;;;5000689;28;20185;-81
2022/11/05 11:37:45;;;;;;;8.43;5.60;;;;;;;;;;5016890;28;20216;-80
2022/11/05 11:40:16;;;;;;;8.73;6.10;;;;;;;;;;5001353;28;20279;-80
2022/11/05 11:42:46;;;;;;;8.37;6.07;;;;;;;;;;5017902;28;20182;-80
2022/11/05 11:45:31;;;;;;;8.93;5.43;;;;;;;;;;5016887;28;20190;-80
2022/11/05 11:47:57;;;;;;;9.57;5.80;;;;;;;;;;5016956;28;20181;-82
2022/11/05 11:50:35;;;;;;;11.37;5.70;;;;;;;;;;5000407;28;20188;-82
2022/11/05 11:53:20;;;;;;;7.77;5.30;;;;;;;;;;4998227;28;20260;-82
2022/11/05 11:56:01;;;;;;;10.97;5.40;;;;;;;;;;5005659;28;20248;-82
2022/11/05 11:58:39;;;;;;;9.93;5.03;;;;;;;;;;5016308;28;20181;-82
2022/11/05 12:01:08;;;;;;;6.67;4.80;;;;;;;;;;5016658;28;20181;-82
2022/11/05 12:03:47;;;;;;;8.50;5.47;;;;;;;;;;5017674;28;20185;-77
2022/11/05 12:06:16;;;;;;;7.87;4.63;;;;;;;;;;5016331;28;20196;-77
2022/11/05 12:09:11;;;;;;;8.47;4.60;;;;;;;;;;5016196;28;20213;-77
2022/11/05 12:11:41;;;;;;;10.37;5.30;;;;;;;;;;5007951;28;20287;-77
2022/11/05 12:14:28;;;;;;;6.40;4.80;;;;;;;;;;5016167;28;20177;-77
2022/11/05 12:16:57;;;;;;;10.90;5.30;;;;;;;;;;5016272;28;20181;-77
2022/11/05 12:19:48;;;;;;;6.47;4.80;;;;;;;;;;5020283;28;20245;-76
2022/11/05 12:22:35;;;;;;;7.77;5.13;;;;;;;;;;5015833;28;20220;-80
2022/11/05 12:25:01;;;;;;;5.83;4.83;;;;;;;;;;4976879;28;20284;-80
2022/11/05 12:27:30;;;;;;;6.60;4.90;;;;;;;;;;5016959;28;20219;-82
2022/11/05 12:30:04;;;;;;;8.57;5.03;;;;;;;;;;5015315;28;20205;-81
2022/11/05 12:32:33;;;;;;;8.40;5.40;;;;;;;;;;5016859;28;20181;-82
2022/11/05 12:35:06;;;;;;;10.20;5.27;;;;;;;;;;5016379;28;20177;-82
2022/11/05 12:37:35;;;;;;;8.07;5.47;;;;;;;;;;5016870;28;20182;-81
2022/11/05 12:40:14;;;;;;;9.00;5.23;;;;;;;;;;5015416;28;20243;-81
2022/11/05 12:42:58;;;;;;;7.40;5.27;;;;;;;;;;5015655;28;20184;-82
2022/11/05 12:45:43;;;;;;;10.77;4.90;;;;;;;;;;5015613;28;20196;-82
2022/11/05 12:48:27;;;;;;;6.60;5.20;;;;;;;;;;5015153;28;20216;-82
2022/11/05 12:51:12;;;;;;;7.00;5.00;;;;;;;;;;5015236;28;20185;-77
2022/11/05 12:53:57;;;;;;;6.10;5.10;;;;;;;;;;5015308;28;20181;-78
2022/11/05 12:56:31;;;;;;;8.80;4.97;;;;;;;;;;5015177;28;20184;-77
2022/11/05 12:59:03;;;;;;;12.00;5.50;;;;;;;;;;5015262;28;20201;-77
2022/11/05 13:01:35;;;;;;;7.82;5.80;;;;;;;;;;5015613;28;20422;-77
2022/11/05 13:04:05;;;;;;;10.77;6.20;;;;;;;;;;5014532;28;20419;-77
2022/11/05 13:06:39;;;;;;;6.97;5.33;;;;;;;;;;5015160;28;20185;-77
2022/11/05 13:09:23;;;;;;;9.13;5.17;;;;;;;;;;5015024;28;20236;-77
2022/11/05 13:12:01;;;;;;;7.47;5.30;;;;;;;;;;5015449;28;20173;-80
2022/11/05 13:14:27;;;;;;;9.67;5.53;;;;;;;;;;4995548;28;20170;-80
2022/11/05 13:16:56;;;;;;;9.83;5.70;;;;;;;;;;5011801;28;20178;-80
2022/11/05 13:19:28;;;;;;;9.50;5.77;;;;;;;;;;5014992;28;20185;-80
2022/11/05 13:22:06;;;;;;;9.93;6.03;;;;;;;;;;5015157;28;20181;-80
2022/11/05 13:24:53;;;;;;;7.73;5.50;;;;;;;;;;5014889;28;20220;-80
2022/11/05 13:27:37;;;;;;;8.60;5.67;;;;;;;;;;5014921;28;20185;-90
2022/11/05 13:30:05;;;;;;;9.47;6.23;;;;;;;;;;5014526;28;20206;-90
2022/11/05 13:32:34;;;;;;;9.80;6.20;;;;;;;;;;4997965;28;20188;-77
2022/11/05 13:35:02;;;;;;;9.20;6.27;;;;;;;;;;5011488;28;20178;-77
2022/11/05 13:40:21;;;;;;;11.63;7.00;;;;;;;;;;5012781;28;20290;-77
2022/11/05 13:43:07;;;;;;;11.90;6.30;;;;;;;;;;5014387;28;20174;-77
2022/11/05 13:45:46;;;;;;;12.07;6.90;;;;;;;;;;5017175;28;20185;-90
2022/11/05 13:48:27;;;;;;;9.87;6.33;;;;;;;;;;5016766;28;20173;-90
2022/11/05 13:51:12;;;;;;;9.40;6.83;;;;;;;;;;5016555;28;20213;-89
2022/11/05 13:53:56;;;;;;;9.73;7.10;;;;;;;;;;5006628;28;20196;-90
2022/11/05 13:56:38;;;;;;;10.53;6.97;;;;;;;;;;5014710;28;20238;-91
2022/11/05 13:59:08;;;;;;;10.00;6.97;;;;;;;;;;5014589;28;20185;-90
2022/11/05 14:01:41;;;;;;;10.17;6.73;;;;;;;;;;5015605;28;20203;-77
2022/11/05 14:04:13;;;;;;;11.17;6.93;;;;;;;;;;5014321;28;20189;-77
2022/11/05 14:06:39;;;;;;;8.60;7.40;;;;;;;;;;5014228;28;20181;-90
2022/11/05 14:09:10;;;;;;;8.37;6.77;;;;;;;;;;5030936;28;20237;-90
2022/11/05 14:11:41;;;;;;;12.17;7.43;;;;;;;;;;5014614;28;20182;-77
2022/11/05 14:14:14;;;;;;;11.17;7.27;;;;;;;;;;5030216;28;20184;-77
2022/11/05 14:16:48;;;;;;;12.27;7.30;;;;;;;;;;5014231;28;20183;-90
2022/11/05 14:19:20;;;;;;;12.20;6.97;;;;;;;;;;5017061;28;20186;-90
2022/11/05 14:21:47;;;;;;;12.43;7.53;;;;;;;;;;5023071;28;20247;-90
2022/11/05 14:24:23;;;;;;;10.50;7.23;;;;;;;;;;5017274;28;20177;-90
2022/11/05 14:27:12;;;;;;;15.30;7.50;;;;;;;;;;5017458;28;20191;-90
2022/11/05 14:29:42;;;;;;;10.80;7.60;;;;;;;;;;5014999;28;20236;-90
2022/11/05 14:32:24;;;;;;;12.80;7.37;;;;;;;;;;5017011;28;20255;-90
2022/11/05 14:35:23;;;;;;;10.83;7.60;;;;;;;;;;5015829;28;20188;-90
2022/11/05 14:37:52;;;;;;;12.63;7.10;;;;;;;;;;4985064;28;20181;-90
2022/11/05 14:40:21;;;;;;;12.47;7.50;;;;;;;;;;5016097;28;20193;-90
2022/11/05 14:43:01;;;;;;;12.60;7.73;;;;;;;;;;5016189;28;20189;-90
2022/11/05 14:45:41;;;;;;;9.90;7.13;;;;;;;;;;5017312;28;20185;-90
2022/11/05 14:48:34;;;;;;;9.70;7.20;;;;;;;;;;5017384;28;20191;-90
2022/11/05 14:51:00;;;;;;;12.20;7.23;;;;;;;;;;5002606;28;20194;-90
2022/11/05 14:53:37;;;;;;;13.47;7.57;;;;;;;;;;5017044;28;20184;-89
2022/11/05 14:56:13;;;;;;;9.97;6.93;;;;;;;;;;5017677;28;20258;-90
2022/11/05 14:58:40;;;;;;;13.17;8.13;;;;;;;;;;5016698;28;20237;-89
2022/11/05 15:01:27;;;;;;;13.07;8.17;;;;;;;;;;5017531;28;20196;-89
2022/11/05 15:04:00;;;;;;;9.20;7.20;;;;;;;;;;5006593;28;20197;-89
2022/11/05 15:06:26;;;;;;;10.82;7.80;;;;;;;;;;5018350;28;20414;-90
2022/11/05 15:08:58;;;;;;;12.30;7.27;;;;;;;;;;5012993;28;20201;-76
2022/11/05 15:11:39;;;;;;;10.60;7.27;;;;;;;;;;5013339;28;20189;-76
2022/11/05 15:14:07;;;;;;;10.43;7.90;;;;;;;;;;5012437;28;20407;-76
2022/11/05 15:16:35;;;;;;;13.47;7.90;;;;;;;;;;5012969;28;20208;-76
2022/11/05 15:19:02;;;;;;;9.87;7.10;;;;;;;;;;5013201;28;20181;-77
2022/11/05 15:21:31;;;;;;;9.27;6.63;;;;;;;;;;4996574;28;20193;-76
2022/11/05 15:23:57;;;;;;;15.00;6.83;;;;;;;;;;5012941;28;20189;-79
2022/11/05 15:26:50;;;;;;;13.23;6.83;;;;;;;;;;4996717;28;20186;-79